sensor_id;sensor_type;location;lat;lon;timestamp;temperature;humidity
47590;DHT22;33316;52.298;9.056;2023-07-31T00:00:19;19.10;82.90
47590;DHT22;33316;52.298;9.056;2023-07-31T00:02:46;19.10;83.00
47590;DHT22;33316;52.298;9.056;2023-07-31T00:05:13;19.10;83.30
47590;DHT22;33316;52.298;9.056;2023-07-31T00:07:39;19.10;83.30
47590;DHT22;33316;52.298;9.056;2023-07-31T00:10:07;19.10;83.40
47590;DHT22;33316;52.298;9.056;2023-07-31T00:12:34;19.10;83.50
47590;DHT22;33316;52.298;9.056;2023-07-31T00:15:02;19.00;83.50
47590;DHT22;33316;52.298;9.056;2023-07-31T00:17:30;19.10;83.70
47590;DHT22;33316;52.298;9.056;2023-07-31T00:19:57;19.00;83.70
47590;DHT22;33316;52.298;9.056;2023-07-31T00:22:24;19.10;84.00
47590;DHT22;33316;52.298;9.056;2023-07-31T00:24:51;19.00;84.00
47590;DHT22;33316;52.298;9.056;2023-07-31T00:27:17;19.00;84.10
47590;DHT22;33316;52.298;9.056;2023-07-31T00:29:44;19.00;84.40
47590;DHT22;33316;52.298;9.056;2023-07-31T00:32:12;19.00;84.40
47590;DHT22;33316;52.298;9.056;2023-07-31T00:34:39;19.00;84.50
47590;DHT22;33316;52.298;9.056;2023-07-31T00:37:06;19.00;84.70
47590;DHT22;33316;52.298;9.056;2023-07-31T00:39:34;19.00;84.70
47590;DHT22;33316;52.298;9.056;2023-07-31T00:42:01;19.00;84.80
47590;DHT22;33316;52.298;9.056;2023-07-31T00:44:28;19.00;84.90
47590;DHT22;33316;52.298;9.056;2023-07-31T00:46:55;19.00;85.00
47590;DHT22;33316;52.298;9.056;2023-07-31T00:49:25;18.90;85.00
47590;DHT22;33316;52.298;9.056;2023-07-31T00:51:53;18.90;85.20
47590;DHT22;33316;52.298;9.056;2023-07-31T00:54:24;18.90;85.40
47590;DHT22;33316;52.298;9.056;2023-07-31T00:56:53;18.90;85.40
47590;DHT22;33316;52.298;9.056;2023-07-31T00:59:21;18.90;85.40
47590;DHT22;33316;52.298;9.056;2023-07-31T01:01:48;18.90;85.60
47590;DHT22;33316;52.298;9.056;2023-07-31T01:04:16;18.90;85.70
47590;DHT22;33316;52.298;9.056;2023-07-31T01:06:51;18.90;85.70
47590;DHT22;33316;52.298;9.056;2023-07-31T01:09:26;18.90;85.80
47590;DHT22;33316;52.298;9.056;2023-07-31T01:11:57;18.90;85.90
47590;DHT22;33316;52.298;9.056;2023-07-31T01:14:27;18.80;85.90
47590;DHT22;33316;52.298;9.056;2023-07-31T01:16:54;18.90;86.10
47590;DHT22;33316;52.298;9.056;2023-07-31T01:19:24;18.90;86.10
47590;DHT22;33316;52.298;9.056;2023-07-31T01:22:27;18.90;86.20
47590;DHT22;33316;52.298;9.056;2023-07-31T01:25:06;18.80;86.30
47590;DHT22;33316;52.298;9.056;2023-07-31T01:27:42;18.90;86.30
47590;DHT22;33316;52.298;9.056;2023-07-31T01:30:15;18.80;86.40
47590;DHT22;33316;52.298;9.056;2023-07-31T01:32:43;18.80;86.40
47590;DHT22;33316;52.298;9.056;2023-07-31T01:35:12;18.80;86.50
47590;DHT22;33316;52.298;9.056;2023-07-31T01:37:40;18.80;86.50
47590;DHT22;33316;52.298;9.056;2023-07-31T01:40:07;18.80;86.60
47590;DHT22;33316;52.298;9.056;2023-07-31T01:42:35;18.80;86.60
47590;DHT22;33316;52.298;9.056;2023-07-31T01:45:03;18.80;86.80
47590;DHT22;33316;52.298;9.056;2023-07-31T01:47:30;18.80;86.90
47590;DHT22;33316;52.298;9.056;2023-07-31T01:49:56;18.80;87.00
47590;DHT22;33316;52.298;9.056;2023-07-31T01:52:23;18.80;87.10
47590;DHT22;33316;52.298;9.056;2023-07-31T01:54:50;18.80;87.20
47590;DHT22;33316;52.298;9.056;2023-07-31T01:57:19;18.70;87.20
47590;DHT22;33316;52.298;9.056;2023-07-31T01:59:48;18.80;87.30
47590;DHT22;33316;52.298;9.056;2023-07-31T02:02:15;18.80;87.40
47590;DHT22;33316;52.298;9.056;2023-07-31T02:04:42;18.80;87.40
47590;DHT22;33316;52.298;9.056;2023-07-31T02:07:09;18.80;87.50
47590;DHT22;33316;52.298;9.056;2023-07-31T02:09:35;18.70;87.60
47590;DHT22;33316;52.298;9.056;2023-07-31T02:12:03;18.70;87.70
47590;DHT22;33316;52.298;9.056;2023-07-31T02:14:30;18.70;87.80
47590;DHT22;33316;52.298;9.056;2023-07-31T02:16:58;18.70;87.80
47590;DHT22;33316;52.298;9.056;2023-07-31T02:19:25;18.70;87.90
47590;DHT22;33316;52.298;9.056;2023-07-31T02:21:52;18.70;88.00
47590;DHT22;33316;52.298;9.056;2023-07-31T02:24:19;18.70;88.00
47590;DHT22;33316;52.298;9.056;2023-07-31T02:26:45;18.70;88.00
47590;DHT22;33316;52.298;9.056;2023-07-31T02:29:12;18.70;88.10
47590;DHT22;33316;52.298;9.056;2023-07-31T02:31:39;18.60;88.20
47590;DHT22;33316;52.298;9.056;2023-07-31T02:34:07;18.70;88.20
47590;DHT22;33316;52.298;9.056;2023-07-31T02:36:34;18.60;88.30
47590;DHT22;33316;52.298;9.056;2023-07-31T02:39:01;18.60;88.30
47590;DHT22;33316;52.298;9.056;2023-07-31T02:41:28;18.60;88.40
47590;DHT22;33316;52.298;9.056;2023-07-31T02:43:54;18.60;88.20
47590;DHT22;33316;52.298;9.056;2023-07-31T02:46:21;18.60;88.20
47590;DHT22;33316;52.298;9.056;2023-07-31T02:48:50;18.60;88.10
47590;DHT22;33316;52.298;9.056;2023-07-31T02:51:18;18.60;88.10
47590;DHT22;33316;52.298;9.056;2023-07-31T02:53:46;18.60;88.10
47590;DHT22;33316;52.298;9.056;2023-07-31T02:56:13;18.60;88.00
47590;DHT22;33316;52.298;9.056;2023-07-31T02:58:41;18.60;87.80
47590;DHT22;33316;52.298;9.056;2023-07-31T03:01:07;18.60;87.80
47590;DHT22;33316;52.298;9.056;2023-07-31T03:03:34;18.60;87.80
47590;DHT22;33316;52.298;9.056;2023-07-31T03:06:01;18.60;87.80
47590;DHT22;33316;52.298;9.056;2023-07-31T03:08:29;18.60;88.00
47590;DHT22;33316;52.298;9.056;2023-07-31T03:10:56;18.60;88.10
47590;DHT22;33316;52.298;9.056;2023-07-31T03:13:23;18.60;88.10
47590;DHT22;33316;52.298;9.056;2023-07-31T03:15:50;18.50;88.10
47590;DHT22;33316;52.298;9.056;2023-07-31T03:18:17;18.50;88.10
47590;DHT22;33316;52.298;9.056;2023-07-31T03:20:44;18.50;88.20
47590;DHT22;33316;52.298;9.056;2023-07-31T03:23:11;18.50;88.30
47590;DHT22;33316;52.298;9.056;2023-07-31T03:25:41;18.40;88.20
47590;DHT22;33316;52.298;9.056;2023-07-31T03:28:08;18.40;88.30
47590;DHT22;33316;52.298;9.056;2023-07-31T03:30:36;18.40;88.40
47590;DHT22;33316;52.298;9.056;2023-07-31T03:33:03;18.40;88.50
47590;DHT22;33316;52.298;9.056;2023-07-31T03:35:30;18.40;88.60
47590;DHT22;33316;52.298;9.056;2023-07-31T03:37:57;18.40;88.60
47590;DHT22;33316;52.298;9.056;2023-07-31T03:40:24;18.30;88.60
47590;DHT22;33316;52.298;9.056;2023-07-31T03:42:52;18.30;88.70
47590;DHT22;33316;52.298;9.056;2023-07-31T03:45:19;18.30;88.70
47590;DHT22;33316;52.298;9.056;2023-07-31T03:47:46;18.30;88.70
47590;DHT22;33316;52.298;9.056;2023-07-31T03:50:13;18.30;88.70
47590;DHT22;33316;52.298;9.056;2023-07-31T03:52:41;18.30;88.80
47590;DHT22;33316;52.298;9.056;2023-07-31T03:55:08;18.30;88.80
47590;DHT22;33316;52.298;9.056;2023-07-31T03:57:35;18.20;88.80
47590;DHT22;33316;52.298;9.056;2023-07-31T04:00:04;18.20;88.80
47590;DHT22;33316;52.298;9.056;2023-07-31T04:02:38;18.20;88.80
47590;DHT22;33316;52.298;9.056;2023-07-31T04:05:05;18.20;89.00
47590;DHT22;33316;52.298;9.056;2023-07-31T04:07:31;18.20;89.00
47590;DHT22;33316;52.298;9.056;2023-07-31T04:09:59;18.20;89.00
47590;DHT22;33316;52.298;9.056;2023-07-31T04:12:26;18.20;89.10
47590;DHT22;33316;52.298;9.056;2023-07-31T04:14:53;18.10;89.20
47590;DHT22;33316;52.298;9.056;2023-07-31T04:17:21;18.10;89.20
47590;DHT22;33316;52.298;9.056;2023-07-31T04:19:48;18.10;89.40
47590;DHT22;33316;52.298;9.056;2023-07-31T04:22:15;18.10;89.50
47590;DHT22;33316;52.298;9.056;2023-07-31T04:24:42;18.10;89.50
47590;DHT22;33316;52.298;9.056;2023-07-31T04:27:08;18.10;89.60
47590;DHT22;33316;52.298;9.056;2023-07-31T04:29:35;18.10;89.80
47590;DHT22;33316;52.298;9.056;2023-07-31T04:32:02;18.00;89.80
47590;DHT22;33316;52.298;9.056;2023-07-31T04:34:30;18.00;90.30
47590;DHT22;33316;52.298;9.056;2023-07-31T04:36:57;18.00;90.00
47590;DHT22;33316;52.298;9.056;2023-07-31T04:39:24;18.00;90.00
47590;DHT22;33316;52.298;9.056;2023-07-31T04:41:51;18.00;90.00
47590;DHT22;33316;52.298;9.056;2023-07-31T04:44:18;18.00;90.00
47590;DHT22;33316;52.298;9.056;2023-07-31T04:46:44;18.00;90.10
47590;DHT22;33316;52.298;9.056;2023-07-31T04:49:11;18.00;90.50
47590;DHT22;33316;52.298;9.056;2023-07-31T04:51:40;18.00;90.20
47590;DHT22;33316;52.298;9.056;2023-07-31T04:54:06;18.00;90.20
47590;DHT22;33316;52.298;9.056;2023-07-31T04:56:33;18.00;90.30
47590;DHT22;33316;52.298;9.056;2023-07-31T04:59:00;18.00;90.30
47590;DHT22;33316;52.298;9.056;2023-07-31T05:01:27;18.10;90.40
47590;DHT22;33316;52.298;9.056;2023-07-31T05:03:54;18.10;90.40
47590;DHT22;33316;52.298;9.056;2023-07-31T05:06:20;18.10;90.40
47590;DHT22;33316;52.298;9.056;2023-07-31T05:08:49;18.10;90.50
47590;DHT22;33316;52.298;9.056;2023-07-31T05:11:16;18.10;90.50
47590;DHT22;33316;52.298;9.056;2023-07-31T05:13:42;18.20;90.50
47590;DHT22;33316;52.298;9.056;2023-07-31T05:16:09;18.10;90.60
47590;DHT22;33316;52.298;9.056;2023-07-31T05:18:36;18.20;90.70
47590;DHT22;33316;52.298;9.056;2023-07-31T05:21:03;18.20;90.70
47590;DHT22;33316;52.298;9.056;2023-07-31T05:23:30;18.20;90.70
47590;DHT22;33316;52.298;9.056;2023-07-31T05:26:04;18.20;90.70
47590;DHT22;33316;52.298;9.056;2023-07-31T05:28:31;18.30;90.80
47590;DHT22;33316;52.298;9.056;2023-07-31T05:30:59;18.30;90.80
47590;DHT22;33316;52.298;9.056;2023-07-31T05:33:26;18.30;90.90
47590;DHT22;33316;52.298;9.056;2023-07-31T05:35:53;18.30;90.80
47590;DHT22;33316;52.298;9.056;2023-07-31T05:38:20;18.30;90.80
47590;DHT22;33316;52.298;9.056;2023-07-31T05:40:47;18.30;90.80
47590;DHT22;33316;52.298;9.056;2023-07-31T05:43:15;18.30;90.80
47590;DHT22;33316;52.298;9.056;2023-07-31T05:45:42;18.30;90.80
47590;DHT22;33316;52.298;9.056;2023-07-31T05:48:09;18.30;90.80
47590;DHT22;33316;52.298;9.056;2023-07-31T05:50:36;18.30;90.80
47590;DHT22;33316;52.298;9.056;2023-07-31T05:53:04;18.30;90.80
47590;DHT22;33316;52.298;9.056;2023-07-31T05:55:31;18.30;90.80
47590;DHT22;33316;52.298;9.056;2023-07-31T05:57:58;18.30;90.80
47590;DHT22;33316;52.298;9.056;2023-07-31T06:00:26;18.40;90.80
47590;DHT22;33316;52.298;9.056;2023-07-31T06:02:54;18.40;90.80
47590;DHT22;33316;52.298;9.056;2023-07-31T06:05:20;18.40;90.80
47590;DHT22;33316;52.298;9.056;2023-07-31T06:07:47;18.40;90.80
47590;DHT22;33316;52.298;9.056;2023-07-31T06:10:14;18.40;90.70
47590;DHT22;33316;52.298;9.056;2023-07-31T06:12:41;18.40;91.10
47590;DHT22;33316;52.298;9.056;2023-07-31T06:15:08;18.40;90.70
47590;DHT22;33316;52.298;9.056;2023-07-31T06:17:38;18.40;90.70
47590;DHT22;33316;52.298;9.056;2023-07-31T06:20:06;18.40;90.70
47590;DHT22;33316;52.298;9.056;2023-07-31T06:22:33;18.40;90.70
47590;DHT22;33316;52.298;9.056;2023-07-31T06:25:00;18.40;90.70
47590;DHT22;33316;52.298;9.056;2023-07-31T06:27:27;18.40;90.70
47590;DHT22;33316;52.298;9.056;2023-07-31T06:29:53;18.40;90.70
47590;DHT22;33316;52.298;9.056;2023-07-31T06:32:20;18.40;90.60
47590;DHT22;33316;52.298;9.056;2023-07-31T06:34:48;18.40;90.60
47590;DHT22;33316;52.298;9.056;2023-07-31T06:37:16;18.40;90.60
47590;DHT22;33316;52.298;9.056;2023-07-31T06:39:43;18.40;90.60
47590;DHT22;33316;52.298;9.056;2023-07-31T06:42:10;18.40;90.60
47590;DHT22;33316;52.298;9.056;2023-07-31T06:44:37;18.40;90.60
47590;DHT22;33316;52.298;9.056;2023-07-31T06:47:04;18.40;90.60
47590;DHT22;33316;52.298;9.056;2023-07-31T06:49:31;18.40;90.60
47590;DHT22;33316;52.298;9.056;2023-07-31T06:51:59;18.40;90.50
47590;DHT22;33316;52.298;9.056;2023-07-31T06:54:26;18.40;90.50
47590;DHT22;33316;52.298;9.056;2023-07-31T06:56:53;18.40;90.50
47590;DHT22;33316;52.298;9.056;2023-07-31T06:59:20;18.50;90.50
47590;DHT22;33316;52.298;9.056;2023-07-31T07:01:47;18.50;90.50
47590;DHT22;33316;52.298;9.056;2023-07-31T07:04:14;18.50;90.50
47590;DHT22;33316;52.298;9.056;2023-07-31T07:06:40;18.40;90.60
47590;DHT22;33316;52.298;9.056;2023-07-31T07:09:09;18.50;90.60
47590;DHT22;33316;52.298;9.056;2023-07-31T07:11:35;18.40;90.60
47590;DHT22;33316;52.298;9.056;2023-07-31T07:14:02;18.50;90.60
47590;DHT22;33316;52.298;9.056;2023-07-31T07:16:30;18.50;90.70
47590;DHT22;33316;52.298;9.056;2023-07-31T07:18:57;18.50;90.70
47590;DHT22;33316;52.298;9.056;2023-07-31T07:21:24;18.40;90.70
47590;DHT22;33316;52.298;9.056;2023-07-31T07:23:51;18.50;90.70
47590;DHT22;33316;52.298;9.056;2023-07-31T07:26:19;18.50;90.70
47590;DHT22;33316;52.298;9.056;2023-07-31T07:28:46;18.50;90.60
47590;DHT22;33316;52.298;9.056;2023-07-31T07:31:13;18.50;90.70
47590;DHT22;33316;52.298;9.056;2023-07-31T07:33:39;18.50;90.70
47590;DHT22;33316;52.298;9.056;2023-07-31T07:36:06;18.50;90.70
47590;DHT22;33316;52.298;9.056;2023-07-31T07:38:35;18.50;90.70
47590;DHT22;33316;52.298;9.056;2023-07-31T07:41:02;18.60;90.70
47590;DHT22;33316;52.298;9.056;2023-07-31T07:43:30;18.60;90.70
47590;DHT22;33316;52.298;9.056;2023-07-31T07:45:57;18.70;90.60
47590;DHT22;33316;52.298;9.056;2023-07-31T07:48:24;18.80;90.60
47590;DHT22;33316;52.298;9.056;2023-07-31T07:50:54;18.80;90.60
47590;DHT22;33316;52.298;9.056;2023-07-31T07:53:21;18.80;90.50
47590;DHT22;33316;52.298;9.056;2023-07-31T07:55:48;18.90;90.50
47590;DHT22;33316;52.298;9.056;2023-07-31T07:58:15;18.90;90.60
47590;DHT22;33316;52.298;9.056;2023-07-31T08:00:48;18.90;90.50
47590;DHT22;33316;52.298;9.056;2023-07-31T08:03:17;18.90;90.60
47590;DHT22;33316;52.298;9.056;2023-07-31T08:05:45;18.90;90.50
47590;DHT22;33316;52.298;9.056;2023-07-31T08:08:14;18.90;90.40
47590;DHT22;33316;52.298;9.056;2023-07-31T08:10:41;18.90;90.50
47590;DHT22;33316;52.298;9.056;2023-07-31T08:13:09;18.90;90.40
47590;DHT22;33316;52.298;9.056;2023-07-31T08:15:36;18.90;90.40
47590;DHT22;33316;52.298;9.056;2023-07-31T08:18:06;18.90;90.40
47590;DHT22;33316;52.298;9.056;2023-07-31T08:20:33;18.90;90.40
47590;DHT22;33316;52.298;9.056;2023-07-31T08:23:00;18.90;90.40
47590;DHT22;33316;52.298;9.056;2023-07-31T08:25:27;18.90;90.40
47590;DHT22;33316;52.298;9.056;2023-07-31T08:27:53;18.90;90.50
47590;DHT22;33316;52.298;9.056;2023-07-31T08:30:21;18.90;90.50
47590;DHT22;33316;52.298;9.056;2023-07-31T08:32:49;18.90;90.50
47590;DHT22;33316;52.298;9.056;2023-07-31T08:35:17;18.90;90.60
47590;DHT22;33316;52.298;9.056;2023-07-31T08:37:44;18.90;90.70
47590;DHT22;33316;52.298;9.056;2023-07-31T08:40:11;18.80;90.70
47590;DHT22;33316;52.298;9.056;2023-07-31T08:42:46;18.90;90.90
47590;DHT22;33316;52.298;9.056;2023-07-31T08:45:15;18.90;91.00
47590;DHT22;33316;52.298;9.056;2023-07-31T08:47:44;18.90;91.00
47590;DHT22;33316;52.298;9.056;2023-07-31T08:50:12;18.90;91.10
47590;DHT22;33316;52.298;9.056;2023-07-31T08:52:40;19.00;91.10
47590;DHT22;33316;52.298;9.056;2023-07-31T08:55:08;19.00;91.10
47590;DHT22;33316;52.298;9.056;2023-07-31T08:57:37;19.00;91.10
47590;DHT22;33316;52.298;9.056;2023-07-31T09:00:06;19.00;91.10
47590;DHT22;33316;52.298;9.056;2023-07-31T09:02:38;19.00;91.10
47590;DHT22;33316;52.298;9.056;2023-07-31T09:05:07;19.10;91.30
47590;DHT22;33316;52.298;9.056;2023-07-31T09:07:34;19.10;91.20
47590;DHT22;33316;52.298;9.056;2023-07-31T09:10:04;19.10;91.20
47590;DHT22;33316;52.298;9.056;2023-07-31T09:12:31;19.10;91.30
47590;DHT22;33316;52.298;9.056;2023-07-31T09:14:58;19.10;91.30
47590;DHT22;33316;52.298;9.056;2023-07-31T09:17:29;19.20;91.30
47590;DHT22;33316;52.298;9.056;2023-07-31T09:19:56;19.10;91.40
47590;DHT22;33316;52.298;9.056;2023-07-31T09:22:32;19.20;91.40
47590;DHT22;33316;52.298;9.056;2023-07-31T09:25:14;19.20;91.40
47590;DHT22;33316;52.298;9.056;2023-07-31T09:27:47;19.20;91.40
47590;DHT22;33316;52.298;9.056;2023-07-31T09:30:14;19.20;91.30
47590;DHT22;33316;52.298;9.056;2023-07-31T09:32:42;19.30;91.30
47590;DHT22;33316;52.298;9.056;2023-07-31T09:35:14;19.30;91.30
47590;DHT22;33316;52.298;9.056;2023-07-31T09:37:48;19.30;91.20
47590;DHT22;33316;52.298;9.056;2023-07-31T09:40:27;19.30;91.20
47590;DHT22;33316;52.298;9.056;2023-07-31T09:42:56;19.30;91.20
47590;DHT22;33316;52.298;9.056;2023-07-31T09:45:23;19.30;91.10
47590;DHT22;33316;52.298;9.056;2023-07-31T09:47:51;19.30;91.10
47590;DHT22;33316;52.298;9.056;2023-07-31T09:50:19;19.30;91.10
47590;DHT22;33316;52.298;9.056;2023-07-31T09:52:46;19.40;91.20
47590;DHT22;33316;52.298;9.056;2023-07-31T09:55:13;19.40;91.10
47590;DHT22;33316;52.298;9.056;2023-07-31T09:57:43;19.50;91.20
47590;DHT22;33316;52.298;9.056;2023-07-31T10:00:11;19.50;91.20
47590;DHT22;33316;52.298;9.056;2023-07-31T10:02:38;19.50;91.20
47590;DHT22;33316;52.298;9.056;2023-07-31T10:05:07;19.50;91.10
47590;DHT22;33316;52.298;9.056;2023-07-31T10:07:38;19.50;91.20
47590;DHT22;33316;52.298;9.056;2023-07-31T10:10:07;19.60;91.20
47590;DHT22;33316;52.298;9.056;2023-07-31T10:12:35;19.60;91.40
47590;DHT22;33316;52.298;9.056;2023-07-31T10:15:08;19.70;91.40
47590;DHT22;33316;52.298;9.056;2023-07-31T10:17:35;19.70;91.30
47590;DHT22;33316;52.298;9.056;2023-07-31T10:20:03;19.70;91.30
47590;DHT22;33316;52.298;9.056;2023-07-31T10:22:31;19.70;91.20
47590;DHT22;33316;52.298;9.056;2023-07-31T10:24:59;19.70;91.20
47590;DHT22;33316;52.298;9.056;2023-07-31T10:27:27;19.70;91.10
47590;DHT22;33316;52.298;9.056;2023-07-31T10:29:56;19.70;91.10
47590;DHT22;33316;52.298;9.056;2023-07-31T10:32:26;19.70;91.00
47590;DHT22;33316;52.298;9.056;2023-07-31T10:34:54;19.70;90.90
47590;DHT22;33316;52.298;9.056;2023-07-31T10:37:23;19.70;90.90
47590;DHT22;33316;52.298;9.056;2023-07-31T10:39:58;19.80;90.90
47590;DHT22;33316;52.298;9.056;2023-07-31T10:42:31;19.80;90.80
47590;DHT22;33316;52.298;9.056;2023-07-31T10:44:59;19.70;90.70
47590;DHT22;33316;52.298;9.056;2023-07-31T10:47:28;19.80;90.70
47590;DHT22;33316;52.298;9.056;2023-07-31T10:50:12;19.80;90.70
47590;DHT22;33316;52.298;9.056;2023-07-31T10:52:39;19.80;90.80
47590;DHT22;33316;52.298;9.056;2023-07-31T10:55:31;19.80;90.80
47590;DHT22;33316;52.298;9.056;2023-07-31T10:58:05;19.80;91.00
47590;DHT22;33316;52.298;9.056;2023-07-31T11:00:33;19.80;91.00
47590;DHT22;33316;52.298;9.056;2023-07-31T11:03:03;19.80;91.00
47590;DHT22;33316;52.298;9.056;2023-07-31T11:05:51;19.80;91.00
47590;DHT22;33316;52.298;9.056;2023-07-31T11:08:21;19.80;91.10
47590;DHT22;33316;52.298;9.056;2023-07-31T11:10:49;19.80;91.00
47590;DHT22;33316;52.298;9.056;2023-07-31T11:13:17;19.80;91.10
47590;DHT22;33316;52.298;9.056;2023-07-31T11:15:44;19.80;91.10
47590;DHT22;33316;52.298;9.056;2023-07-31T11:18:12;19.80;91.10
47590;DHT22;33316;52.298;9.056;2023-07-31T11:20:40;19.80;91.10
47590;DHT22;33316;52.298;9.056;2023-07-31T11:23:09;19.80;91.10
47590;DHT22;33316;52.298;9.056;2023-07-31T11:25:36;19.80;91.20
47590;DHT22;33316;52.298;9.056;2023-07-31T11:28:11;19.80;91.20
47590;DHT22;33316;52.298;9.056;2023-07-31T11:30:39;19.80;91.30
47590;DHT22;33316;52.298;9.056;2023-07-31T11:33:08;19.80;91.40
47590;DHT22;33316;52.298;9.056;2023-07-31T11:35:42;19.80;91.40
47590;DHT22;33316;52.298;9.056;2023-07-31T11:38:11;19.80;91.40
47590;DHT22;33316;52.298;9.056;2023-07-31T11:40:41;19.80;91.40
47590;DHT22;33316;52.298;9.056;2023-07-31T11:43:08;19.80;91.50
47590;DHT22;33316;52.298;9.056;2023-07-31T11:45:37;19.80;91.50
47590;DHT22;33316;52.298;9.056;2023-07-31T11:48:07;19.80;91.60
47590;DHT22;33316;52.298;9.056;2023-07-31T11:50:35;19.80;91.50
47590;DHT22;33316;52.298;9.056;2023-07-31T11:53:07;19.90;91.50
47590;DHT22;33316;52.298;9.056;2023-07-31T11:55:35;19.90;91.70
47590;DHT22;33316;52.298;9.056;2023-07-31T11:58:05;19.90;91.50
47590;DHT22;33316;52.298;9.056;2023-07-31T12:00:34;19.90;91.50
47590;DHT22;33316;52.298;9.056;2023-07-31T12:03:01;20.00;91.40
47590;DHT22;33316;52.298;9.056;2023-07-31T12:05:28;20.00;91.30
47590;DHT22;33316;52.298;9.056;2023-07-31T12:07:56;20.00;91.30
47590;DHT22;33316;52.298;9.056;2023-07-31T12:10:28;20.00;91.30
47590;DHT22;33316;52.298;9.056;2023-07-31T12:12:58;20.10;91.40
47590;DHT22;33316;52.298;9.056;2023-07-31T12:15:32;20.10;91.40
47590;DHT22;33316;52.298;9.056;2023-07-31T12:18:03;20.10;91.90
47590;DHT22;33316;52.298;9.056;2023-07-31T12:20:30;20.10;91.50
47590;DHT22;33316;52.298;9.056;2023-07-31T12:22:59;20.10;91.50
47590;DHT22;33316;52.298;9.056;2023-07-31T12:25:33;20.10;91.50
47590;DHT22;33316;52.298;9.056;2023-07-31T12:28:05;20.10;91.50
47590;DHT22;33316;52.298;9.056;2023-07-31T12:30:37;20.20;91.50
47590;DHT22;33316;52.298;9.056;2023-07-31T12:33:05;20.20;91.40
47590;DHT22;33316;52.298;9.056;2023-07-31T12:35:40;20.30;91.30
47590;DHT22;33316;52.298;9.056;2023-07-31T12:38:08;20.30;91.20
47590;DHT22;33316;52.298;9.056;2023-07-31T12:40:37;20.30;91.20
47590;DHT22;33316;52.298;9.056;2023-07-31T12:43:04;20.30;91.10
47590;DHT22;33316;52.298;9.056;2023-07-31T12:45:32;20.30;91.10
47590;DHT22;33316;52.298;9.056;2023-07-31T12:47:59;20.30;91.00
47590;DHT22;33316;52.298;9.056;2023-07-31T12:50:26;20.30;91.00
47590;DHT22;33316;52.298;9.056;2023-07-31T12:52:53;20.30;90.90
47590;DHT22;33316;52.298;9.056;2023-07-31T12:55:22;20.30;90.90
47590;DHT22;33316;52.298;9.056;2023-07-31T12:57:49;20.30;90.90
47590;DHT22;33316;52.298;9.056;2023-07-31T13:00:16;20.30;90.90
47590;DHT22;33316;52.298;9.056;2023-07-31T13:02:43;20.30;90.90
47590;DHT22;33316;52.298;9.056;2023-07-31T13:05:10;20.30;90.80
47590;DHT22;33316;52.298;9.056;2023-07-31T13:07:38;20.30;90.80
47590;DHT22;33316;52.298;9.056;2023-07-31T13:10:07;20.40;90.80
47590;DHT22;33316;52.298;9.056;2023-07-31T13:12:35;20.40;90.80
47590;DHT22;33316;52.298;9.056;2023-07-31T13:15:02;20.40;90.80
47590;DHT22;33316;52.298;9.056;2023-07-31T13:17:29;20.40;90.80
47590;DHT22;33316;52.298;9.056;2023-07-31T13:19:56;20.40;90.80
47590;DHT22;33316;52.298;9.056;2023-07-31T13:22:23;20.40;90.80
47590;DHT22;33316;52.298;9.056;2023-07-31T13:24:49;20.40;90.80
47590;DHT22;33316;52.298;9.056;2023-07-31T13:27:16;20.40;90.80
47590;DHT22;33316;52.298;9.056;2023-07-31T13:29:47;20.50;90.80
47590;DHT22;33316;52.298;9.056;2023-07-31T13:32:13;20.50;90.80
47590;DHT22;33316;52.298;9.056;2023-07-31T13:34:40;20.50;90.80
47590;DHT22;33316;52.298;9.056;2023-07-31T13:37:07;20.50;90.80
47590;DHT22;33316;52.298;9.056;2023-07-31T13:39:34;20.50;90.80
47590;DHT22;33316;52.298;9.056;2023-07-31T13:42:03;20.50;90.80
47590;DHT22;33316;52.298;9.056;2023-07-31T13:44:32;20.50;90.80
47590;DHT22;33316;52.298;9.056;2023-07-31T13:47:01;20.50;90.80
47590;DHT22;33316;52.298;9.056;2023-07-31T13:49:28;20.50;90.80
47590;DHT22;33316;52.298;9.056;2023-07-31T13:51:54;20.50;90.80
47590;DHT22;33316;52.298;9.056;2023-07-31T13:54:22;20.50;90.90
47590;DHT22;33316;52.298;9.056;2023-07-31T13:56:49;20.40;90.90
47590;DHT22;33316;52.298;9.056;2023-07-31T13:59:16;20.40;90.90
47590;DHT22;33316;52.298;9.056;2023-07-31T14:01:44;20.50;90.90
47590;DHT22;33316;52.298;9.056;2023-07-31T14:04:12;20.40;90.90
47590;DHT22;33316;52.298;9.056;2023-07-31T14:06:39;20.40;90.90
47590;DHT22;33316;52.298;9.056;2023-07-31T14:09:06;20.40;91.00
47590;DHT22;33316;52.298;9.056;2023-07-31T14:11:33;20.40;91.00
47590;DHT22;33316;52.298;9.056;2023-07-31T14:14:00;20.40;91.10
47590;DHT22;33316;52.298;9.056;2023-07-31T14:16:28;20.40;91.00
47590;DHT22;33316;52.298;9.056;2023-07-31T14:18:55;20.40;91.00
47590;DHT22;33316;52.298;9.056;2023-07-31T14:21:26;20.50;91.00
47590;DHT22;33316;52.298;9.056;2023-07-31T14:23:52;20.50;90.90
47590;DHT22;33316;52.298;9.056;2023-07-31T14:26:19;20.50;90.90
47590;DHT22;33316;52.298;9.056;2023-07-31T14:28:46;20.50;91.20
47590;DHT22;33316;52.298;9.056;2023-07-31T14:31:13;20.60;90.80
47590;DHT22;33316;52.298;9.056;2023-07-31T14:33:41;20.60;90.70
47590;DHT22;33316;52.298;9.056;2023-07-31T14:36:08;20.60;90.70
47590;DHT22;33316;52.298;9.056;2023-07-31T14:38:36;20.70;90.60
47590;DHT22;33316;52.298;9.056;2023-07-31T14:41:03;20.70;90.50
47590;DHT22;33316;52.298;9.056;2023-07-31T14:43:30;20.80;90.40
47590;DHT22;33316;52.298;9.056;2023-07-31T14:45:57;20.80;90.40
47590;DHT22;33316;52.298;9.056;2023-07-31T14:48:25;20.90;90.40
47590;DHT22;33316;52.298;9.056;2023-07-31T14:50:52;20.90;90.20
47590;DHT22;33316;52.298;9.056;2023-07-31T14:53:19;20.90;90.10
47590;DHT22;33316;52.298;9.056;2023-07-31T14:55:47;20.90;90.00
47590;DHT22;33316;52.298;9.056;2023-07-31T14:58:14;20.90;90.00
47590;DHT22;33316;52.298;9.056;2023-07-31T15:00:42;20.90;90.00
47590;DHT22;33316;52.298;9.056;2023-07-31T15:03:09;20.80;90.20
47590;DHT22;33316;52.298;9.056;2023-07-31T15:05:36;20.80;90.30
47590;DHT22;33316;52.298;9.056;2023-07-31T15:08:03;20.80;90.30
47590;DHT22;33316;52.298;9.056;2023-07-31T15:10:30;20.80;90.30
47590;DHT22;33316;52.298;9.056;2023-07-31T15:12:58;20.80;90.30
47590;DHT22;33316;52.298;9.056;2023-07-31T15:15:27;20.80;90.20
47590;DHT22;33316;52.298;9.056;2023-07-31T15:17:54;20.80;90.10
47590;DHT22;33316;52.298;9.056;2023-07-31T15:20:22;20.80;90.00
47590;DHT22;33316;52.298;9.056;2023-07-31T15:22:49;20.70;90.00
47590;DHT22;33316;52.298;9.056;2023-07-31T15:25:19;20.70;89.90
47590;DHT22;33316;52.298;9.056;2023-07-31T15:27:45;20.80;89.80
47590;DHT22;33316;52.298;9.056;2023-07-31T15:30:14;20.80;89.60
47590;DHT22;33316;52.298;9.056;2023-07-31T15:32:41;20.80;89.50
47590;DHT22;33316;52.298;9.056;2023-07-31T15:35:11;20.80;89.40